Time;durP1;ratioP1;P1;durP2;ratioP2;P2;SDS_P1;SDS_P2;PMS_P1;PMS_P2;Temp;Humidity;BMP_temperature;BMP_pressure;BME280_temperature;BME280_humidity;BME280_pressure;Samples;Min_cycle;Max_cycle;Signal;HPM_P1;HPM_P2
2022/09/27 00:00:25;;;;;;;1.15;0.65;;;;;;;;;;7391397;19;20006;-72
2022/09/27 00:02:50;;;;;;;1.00;0.73;;;;;;;;;;7395118;19;20054;-72
2022/09/27 00:05:16;;;;;;;1.40;0.80;;;;;;;;;;7389830;19;20013;-72
2022/09/27 00:07:42;;;;;;;1.92;0.95;;;;;;;;;;7392287;19;19999;-72
2022/09/27 00:10:08;;;;;;;0.93;0.60;;;;;;;;;;7391848;19;20164;-72
2022/09/27 00:12:34;;;;;;;1.75;0.65;;;;;;;;;;7390012;19;20030;-72
2022/09/27 00:15:01;;;;;;;1.48;0.60;;;;;;;;;;7386931;19;20023;-72
2022/09/27 00:17:27;;;;;;;1.17;0.70;;;;;;;;;;7390784;19;20014;-72
2022/09/27 00:19:54;;;;;;;1.38;0.80;;;;;;;;;;7392095;19;20465;-71
2022/09/27 00:22:21;;;;;;;1.00;0.60;;;;;;;;;;7387584;19;20022;-72
2022/09/27 00:24:46;;;;;;;1.05;0.52;;;;;;;;;;7391014;19;20010;-72
2022/09/27 00:27:11;;;;;;;1.00;0.82;;;;;;;;;;7388282;19;20457;-72
2022/09/27 00:29:37;;;;;;;0.75;0.70;;;;;;;;;;7388067;19;20013;-72
2022/09/27 00:32:02;;;;;;;0.70;0.70;;;;;;;;;;7391152;19;20006;-72
2022/09/27 00:34:27;;;;;;;1.80;0.70;;;;;;;;;;7388374;19;20474;-72
2022/09/27 00:36:54;;;;;;;0.60;0.60;;;;;;;;;;7393531;19;20447;-72
2022/09/27 00:39:19;;;;;;;0.60;0.50;;;;;;;;;;7391081;19;20017;-72
2022/09/27 00:41:45;;;;;;;0.93;0.70;;;;;;;;;;7388665;19;20003;-72
2022/09/27 00:44:32;;;;;;;0.70;0.70;;;;;;;;;;7391273;19;20033;-72
2022/09/27 00:47:27;;;;;;;0.60;0.60;;;;;;;;;;7387995;19;20015;-72
2022/09/27 00:50:12;;;;;;;1.52;0.80;;;;;;;;;;7392049;19;20002;-72
2022/09/27 00:53:08;;;;;;;3.50;1.57;;;;;;;;;;7391999;19;20023;-72
2022/09/27 00:55:41;;;;;;;1.23;0.80;;;;;;;;;;7384384;19;20259;-72
2022/09/27 00:58:09;;;;;;;1.25;0.90;;;;;;;;;;7390566;19;19999;-72
2022/09/27 01:00:37;;;;;;;0.80;0.70;;;;;;;;;;7391265;19;20018;-72
2022/09/27 01:03:07;;;;;;;0.90;0.70;;;;;;;;;;7392011;19;20010;-72
2022/09/27 01:05:33;;;;;;;2.33;0.70;;;;;;;;;;7391929;19;20033;-72
2022/09/27 01:07:59;;;;;;;1.58;0.77;;;;;;;;;;7386177;19;20009;-72
2022/09/27 01:10:30;;;;;;;1.90;0.93;;;;;;;;;;7388830;19;20003;-72
2022/09/27 01:13:00;;;;;;;1.65;0.60;;;;;;;;;;7390654;19;20002;-72
2022/09/27 01:15:48;;;;;;;0.77;0.70;;;;;;;;;;7391781;19;20372;-72
2022/09/27 01:18:34;;;;;;;1.33;0.70;;;;;;;;;;7386831;19;20006;-72
2022/09/27 01:21:12;;;;;;;1.75;0.70;;;;;;;;;;7389018;19;20062;-72
2022/09/27 01:24:00;;;;;;;2.08;0.52;;;;;;;;;;7391266;19;20510;-72
2022/09/27 01:26:47;;;;;;;1.33;0.70;;;;;;;;;;7389637;19;20011;-72
2022/09/27 01:29:20;;;;;;;1.83;0.80;;;;;;;;;;7387775;19;20081;-72
2022/09/27 01:31:51;;;;;;;1.50;0.93;;;;;;;;;;7392305;19;20463;-72
2022/09/27 01:34:29;;;;;;;0.60;0.60;;;;;;;;;;7388841;19;20015;-72
2022/09/27 01:37:04;;;;;;;10.80;1.60;;;;;;;;;;7390835;19;20018;-72
2022/09/27 01:39:49;;;;;;;0.93;0.77;;;;;;;;;;7390232;19;20013;-72
2022/09/27 01:42:25;;;;;;;1.52;0.68;;;;;;;;;;7391385;19;20011;-72
2022/09/27 01:45:05;;;;;;;1.23;0.77;;;;;;;;;;7385458;19;20007;-72
2022/09/27 01:47:42;;;;;;;1.33;0.70;;;;;;;;;;7389462;19;20011;-72
2022/09/27 01:50:13;;;;;;;0.98;0.75;;;;;;;;;;7389705;19;20027;-72
2022/09/27 01:52:49;;;;;;;0.70;0.60;;;;;;;;;;7389260;19;20121;-73
2022/09/27 01:55:15;;;;;;;;;;;;;;;;;;7387495;19;20010;-73
2022/09/27 01:57:48;;;;;;;1.35;0.70;;;;;;;;;;7383384;19;20389;-72
2022/09/27 02:00:13;;;;;;;1.95;0.40;;;;;;;;;;7383169;19;20369;-72
2022/09/27 02:02:45;;;;;;;2.92;1.00;;;;;;;;;;7393908;19;20092;-72
2022/09/27 02:05:13;;;;;;;1.02;0.68;;;;;;;;;;7397868;19;19999;-72
2022/09/27 02:08:02;;;;;;;1.88;0.80;;;;;;;;;;7390066;19;20020;-72
2022/09/27 02:10:37;;;;;;;1.38;0.80;;;;;;;;;;7396379;19;20006;-72
2022/09/27 02:13:12;;;;;;;2.03;0.77;;;;;;;;;;7396990;19;20054;-72
2022/09/27 02:16:01;;;;;;;0.65;0.55;;;;;;;;;;7392308;19;20010;-72
2022/09/27 02:18:34;;;;;;;2.08;0.60;;;;;;;;;;7395948;19;20010;-72
2022/09/27 02:21:06;;;;;;;1.40;0.70;;;;;;;;;;7394698;19;20010;-72
2022/09/27 02:23:47;;;;;;;0.32;0.32;;;;;;;;;;7398311;19;20004;-72
2022/09/27 02:26:21;;;;;;;0.30;0.30;;;;;;;;;;7397067;19;20031;-72
2022/09/27 02:28:56;;;;;;;0.75;0.40;;;;;;;;;;7398613;19;20051;-72
2022/09/27 02:31:22;;;;;;;0.85;0.43;;;;;;;;;;7397333;19;20074;-72
2022/09/27 02:33:52;;;;;;;0.93;0.60;;;;;;;;;;7395956;19;20007;-72
2022/09/27 02:36:19;;;;;;;2.15;0.57;;;;;;;;;;7394084;19;20030;-70
2022/09/27 02:38:45;;;;;;;1.80;0.45;;;;;;;;;;7388677;19;20066;-80
2022/09/27 02:41:16;;;;;;;0.30;0.20;;;;;;;;;;7396690;19;20003;-80
2022/09/27 02:43:43;;;;;;;0.22;0.22;;;;;;;;;;7397525;19;19996;-80
2022/09/27 02:46:39;;;;;;;0.45;0.45;;;;;;;;;;7396639;19;20013;-80
2022/09/27 02:49:15;;;;;;;1.85;0.55;;;;;;;;;;7393591;19;20351;-80
2022/09/27 02:52:08;;;;;;;0.85;0.40;;;;;;;;;;7396451;19;20006;-81
2022/09/27 02:55:12;;;;;;;1.92;0.70;;;;;;;;;;7391515;19;20021;-81
2022/09/27 02:57:44;;;;;;;0.60;0.50;;;;;;;;;;7398182;19;20058;-80
2022/09/27 03:00:18;;;;;;;0.50;0.50;;;;;;;;;;7397340;19;20134;-80
2022/09/27 03:03:00;;;;;;;0.95;0.50;;;;;;;;;;7397076;19;20040;-81
2022/09/27 03:05:29;;;;;;;0.40;0.40;;;;;;;;;;7396238;19;20517;-79
2022/09/27 03:07:55;;;;;;;0.88;0.55;;;;;;;;;;7397427;19;20110;-80
2022/09/27 03:10:26;;;;;;;0.40;0.40;;;;;;;;;;7397148;19;20024;-80
2022/09/27 03:12:53;;;;;;;0.70;0.60;;;;;;;;;;7402641;19;20023;-80
2022/09/27 03:15:19;;;;;;;0.40;0.40;;;;;;;;;;7404636;19;20015;-80
2022/09/27 03:17:44;;;;;;;2.58;0.68;;;;;;;;;;7402591;19;20069;-80
2022/09/27 03:20:09;;;;;;;0.88;0.55;;;;;;;;;;7400996;19;20078;-79
2022/09/27 03:22:36;;;;;;;0.77;0.50;;;;;;;;;;7401457;19;20006;-79
2022/09/27 03:25:02;;;;;;;0.77;0.50;;;;;;;;;;7402232;19;20021;-81
2022/09/27 03:27:28;;;;;;;1.17;0.47;;;;;;;;;;7394168;19;20032;-80
2022/09/27 03:29:53;;;;;;;0.47;0.32;;;;;;;;;;7397955;19;19991;-80
2022/09/27 03:32:18;;;;;;;0.57;0.50;;;;;;;;;;7394071;19;20013;-80
2022/09/27 03:34:44;;;;;;;1.95;0.50;;;;;;;;;;7392568;19;20010;-80
2022/09/27 03:37:09;;;;;;;1.00;0.35;;;;;;;;;;7392966;19;20470;-79
2022/09/27 03:39:35;;;;;;;0.40;0.40;;;;;;;;;;7390197;19;20014;-80
2022/09/27 03:42:00;;;;;;;0.52;0.40;;;;;;;;;;7392073;19;20006;-80
2022/09/27 03:44:25;;;;;;;2.47;0.60;;;;;;;;;;7394540;19;20010;-80
2022/09/27 03:46:51;;;;;;;0.60;0.50;;;;;;;;;;7395051;19;20073;-80
2022/09/27 03:49:16;;;;;;;1.02;0.65;;;;;;;;;;7394239;19;20483;-80
2022/09/27 03:51:42;;;;;;;2.85;0.60;;;;;;;;;;7395857;19;20014;-79
2022/09/27 03:54:07;;;;;;;0.50;0.40;;;;;;;;;;7392588;19;20017;-79
2022/09/27 03:56:33;;;;;;;1.02;0.57;;;;;;;;;;7396072;19;20487;-80
2022/09/27 03:58:58;;;;;;;0.50;0.50;;;;;;;;;;7388599;19;20022;-79
2022/09/27 04:01:25;;;;;;;0.80;0.65;;;;;;;;;;7394369;19;20031;-79
2022/09/27 04:03:51;;;;;;;0.40;0.40;;;;;;;;;;7393523;19;20027;-78
2022/09/27 04:06:17;;;;;;;0.60;0.40;;;;;;;;;;7395242;19;19994;-77
2022/09/27 04:08:43;;;;;;;0.73;0.60;;;;;;;;;;7385752;19;20335;-77
2022/09/27 04:11:08;;;;;;;6.07;0.80;;;;;;;;;;7390344;19;20006;-78
2022/09/27 04:13:34;;;;;;;1.58;0.47;;;;;;;;;;7390705;19;20002;-77
2022/09/27 04:16:01;;;;;;;1.10;0.60;;;;;;;;;;7392982;19;20026;-76
2022/09/27 04:18:27;;;;;;;0.50;0.50;;;;;;;;;;7389567;19;20010;-77
2022/09/27 04:20:52;;;;;;;0.35;0.35;;;;;;;;;;7392106;19;20003;-78
2022/09/27 04:23:19;;;;;;;1.00;0.60;;;;;;;;;;7388784;19;20403;-78
2022/09/27 04:25:44;;;;;;;0.65;0.40;;;;;;;;;;7389756;19;20007;-77
2022/09/27 04:28:09;;;;;;;0.55;0.55;;;;;;;;;;7392453;19;20001;-78
2022/09/27 04:30:35;;;;;;;0.55;0.40;;;;;;;;;;7388438;19;20006;-77
2022/09/27 04:33:00;;;;;;;0.40;0.40;;;;;;;;;;7391236;19;20026;-77
2022/09/27 04:38:09;;;;;;;0.40;0.40;;;;;;;;;;7392206;19;20042;-77
2022/09/27 04:40:35;;;;;;;0.50;0.45;;;;;;;;;;7390964;19;20526;-76
2022/09/27 04:43:03;;;;;;;0.30;0.30;;;;;;;;;;7391468;19;20022;-78
2022/09/27 04:45:29;;;;;;;0.30;0.30;;;;;;;;;;7392393;19;20010;-77
2022/09/27 04:47:54;;;;;;;0.73;0.45;;;;;;;;;;7390799;19;20010;-77
2022/09/27 04:50:19;;;;;;;1.00;0.40;;;;;;;;;;7391288;19;20474;-79
2022/09/27 04:52:50;;;;;;;0.30;0.30;;;;;;;;;;7392874;19;20529;-77
2022/09/27 04:55:16;;;;;;;0.43;0.43;;;;;;;;;;7389992;19;20010;-77
2022/09/27 04:57:41;;;;;;;0.68;0.40;;;;;;;;;;7387510;19;20007;-77
2022/09/27 05:00:07;;;;;;;0.70;0.40;;;;;;;;;;7387099;19;20013;-77
2022/09/27 05:02:33;;;;;;;0.80;0.45;;;;;;;;;;7384664;19;20014;-76
2022/09/27 05:04:59;;;;;;;0.88;0.40;;;;;;;;;;7384724;19;20012;-77
2022/09/27 05:07:26;;;;;;;1.67;0.40;;;;;;;;;;7386477;19;20002;-76
2022/09/27 05:09:51;;;;;;;0.30;0.20;;;;;;;;;;7387556;19;20336;-76
2022/09/27 05:12:17;;;;;;;0.25;0.20;;;;;;;;;;7390488;19;20003;-75
2022/09/27 05:14:43;;;;;;;0.77;0.47;;;;;;;;;;7389331;19;20002;-78
2022/09/27 05:17:08;;;;;;;0.60;0.50;;;;;;;;;;7395620;19;19991;-77
2022/09/27 05:19:34;;;;;;;1.17;0.32;;;;;;;;;;7400297;19;20373;-77
2022/09/27 05:21:59;;;;;;;0.32;0.30;;;;;;;;;;7389602;19;20339;-76
2022/09/27 05:24:27;;;;;;;0.85;0.30;;;;;;;;;;7386321;19;20025;-77
2022/09/27 05:26:53;;;;;;;1.23;0.30;;;;;;;;;;7382354;19;20199;-78
2022/09/27 05:29:18;;;;;;;0.30;0.30;;;;;;;;;;7390271;19;20035;-78
2022/09/27 05:31:44;;;;;;;0.30;0.30;;;;;;;;;;7384410;19;20411;-78
2022/09/27 05:34:10;;;;;;;0.28;0.25;;;;;;;;;;7387603;19;20007;-77
2022/09/27 05:36:36;;;;;;;0.30;0.30;;;;;;;;;;7391902;19;20006;-76
2022/09/27 05:39:02;;;;;;;0.40;0.40;;;;;;;;;;7399865;19;20049;-80
2022/09/27 05:41:27;;;;;;;0.30;0.30;;;;;;;;;;7397161;19;20134;-79
2022/09/27 05:43:53;;;;;;;0.32;0.22;;;;;;;;;;7399772;19;20082;-76
2022/09/27 05:46:18;;;;;;;0.85;0.20;;;;;;;;;;7398457;19;21292;-76
2022/09/27 05:48:43;;;;;;;0.43;0.20;;;;;;;;;;7395410;19;20027;-76
2022/09/27 05:51:09;;;;;;;0.70;0.30;;;;;;;;;;7395999;19;20341;-76
2022/09/27 05:53:35;;;;;;;0.75;0.40;;;;;;;;;;7395160;19;20403;-76
2022/09/27 05:56:04;;;;;;;1.15;0.45;;;;;;;;;;7397912;19;20002;-76
2022/09/27 05:58:29;;;;;;;1.00;0.75;;;;;;;;;;7394033;19;20006;-77
2022/09/27 06:00:54;;;;;;;2.17;0.80;;;;;;;;;;7399016;19;20456;-76
2022/09/27 06:03:20;;;;;;;3.30;1.17;;;;;;;;;;7395638;19;20003;-76
2022/09/27 06:05:46;;;;;;;2.30;0.90;;;;;;;;;;7397602;19;20042;-76
2022/09/27 06:08:12;;;;;;;0.85;0.40;;;;;;;;;;7393408;19;20005;-76
2022/09/27 06:10:40;;;;;;;2.75;0.50;;;;;;;;;;7394996;19;20018;-76
2022/09/27 06:13:15;;;;;;;1.65;0.75;;;;;;;;;;7397160;19;20010;-76
2022/09/27 06:15:43;;;;;;;4.05;1.20;;;;;;;;;;7394990;19;20006;-76
2022/09/27 06:18:11;;;;;;;1.25;0.60;;;;;;;;;;7391380;19;20007;-76
2022/09/27 06:20:38;;;;;;;1.23;0.50;;;;;;;;;;7394105;19;20007;-76
2022/09/27 06:23:09;;;;;;;1.08;0.32;;;;;;;;;;7396801;19;20014;-76
2022/09/27 06:25:35;;;;;;;1.35;0.38;;;;;;;;;;7395783;19;20006;-76
2022/09/27 06:28:02;;;;;;;2.55;0.80;;;;;;;;;;7395224;19;20014;-75
2022/09/27 06:30:28;;;;;;;1.02;0.43;;;;;;;;;;7394936;19;20502;-76
2022/09/27 06:33:00;;;;;;;2.15;0.60;;;;;;;;;;7393493;19;20041;-75
2022/09/27 06:35:27;;;;;;;4.05;1.70;;;;;;;;;;7396642;19;19997;-76
2022/09/27 06:37:54;;;;;;;2.28;1.10;;;;;;;;;;7394219;19;20032;-75
2022/09/27 06:40:21;;;;;;;0.80;0.63;;;;;;;;;;7390896;19;20007;-76
2022/09/27 06:42:46;;;;;;;1.17;0.70;;;;;;;;;;7393288;19;20029;-76
2022/09/27 06:45:12;;;;;;;2.67;0.93;;;;;;;;;;7396156;19;19998;-75
2022/09/27 06:47:38;;;;;;;0.85;0.60;;;;;;;;;;7391081;19;20455;-75
2022/09/27 06:50:04;;;;;;;3.78;1.10;;;;;;;;;;7392600;19;20009;-76
2022/09/27 06:52:30;;;;;;;0.82;0.40;;;;;;;;;;7389342;19;20002;-76
2022/09/27 06:54:56;;;;;;;5.22;1.10;;;;;;;;;;7396104;19;20018;-75
2022/09/27 07:00:25;;;;;;;3.85;0.70;;;;;;;;;;7396742;19;20023;-76
2022/09/27 07:02:51;;;;;;;2.03;0.60;;;;;;;;;;7391426;19;20531;-76
2022/09/27 07:05:17;;;;;;;1.10;0.22;;;;;;;;;;7391796;19;20015;-76
2022/09/27 07:07:47;;;;;;;0.25;0.22;;;;;;;;;;7395012;19;20429;-76
2022/09/27 07:10:13;;;;;;;0.65;0.40;;;;;;;;;;7391881;19;20014;-75
2022/09/27 07:12:39;;;;;;;0.90;0.55;;;;;;;;;;7392060;19;20001;-76
2022/09/27 07:15:05;;;;;;;0.75;0.20;;;;;;;;;;7392032;19;20003;-75
2022/09/27 07:17:31;;;;;;;1.27;0.50;;;;;;;;;;7392551;19;20018;-76
2022/09/27 07:19:56;;;;;;;0.45;0.40;;;;;;;;;;7393757;19;20502;-77
2022/09/27 07:22:21;;;;;;;0.63;0.50;;;;;;;;;;7395839;19;20443;-76
2022/09/27 07:24:47;;;;;;;0.80;0.38;;;;;;;;;;7392767;19;20332;-76
2022/09/27 07:27:14;;;;;;;4.18;0.82;;;;;;;;;;7392778;19;20017;-76
2022/09/27 07:29:39;;;;;;;1.13;0.60;;;;;;;;;;7390846;19;20023;-76
2022/09/27 07:32:04;;;;;;;0.73;0.43;;;;;;;;;;7391107;19;20517;-75
2022/09/27 07:34:32;;;;;;;0.82;0.50;;;;;;;;;;7393127;19;20382;-76
2022/09/27 07:36:59;;;;;;;2.50;0.73;;;;;;;;;;7392435;19;20030;-76
2022/09/27 07:39:24;;;;;;;1.63;0.50;;;;;;;;;;7392236;19;20018;-76
2022/09/27 07:41:50;;;;;;;2.60;0.55;;;;;;;;;;7395202;19;20351;-76
2022/09/27 07:44:16;;;;;;;0.50;0.50;;;;;;;;;;7393337;19;20036;-76
2022/09/27 07:46:42;;;;;;;0.98;0.40;;;;;;;;;;7391962;19;20003;-76
2022/09/27 07:49:07;;;;;;;1.50;0.50;;;;;;;;;;7392444;19;20002;-76
2022/09/27 07:51:32;;;;;;;1.85;0.47;;;;;;;;;;7389957;19;20051;-76
2022/09/27 07:54:00;;;;;;;6.32;1.25;;;;;;;;;;7392447;19;20005;-76
2022/09/27 07:56:25;;;;;;;0.85;0.40;;;;;;;;;;7390021;19;20370;-75
2022/09/27 07:58:51;;;;;;;1.85;1.15;;;;;;;;;;7389398;19;20014;-79
2022/09/27 08:01:16;;;;;;;2.50;1.10;;;;;;;;;;7388789;19;20022;-75
2022/09/27 08:03:42;;;;;;;2.38;0.75;;;;;;;;;;7390497;19;20003;-76
2022/09/27 08:06:08;;;;;;;1.55;0.52;;;;;;;;;;7383536;19;20003;-76
2022/09/27 08:08:33;;;;;;;0.77;0.40;;;;;;;;;;7391128;19;20074;-76
2022/09/27 08:10:59;;;;;;;0.85;0.40;;;;;;;;;;7391484;19;20013;-75
2022/09/27 08:13:24;;;;;;;0.60;0.20;;;;;;;;;;7392067;19;20006;-74
2022/09/27 08:15:51;;;;;;;0.13;0.13;;;;;;;;;;7393077;19;19994;-75
2022/09/27 08:18:16;;;;;;;0.50;0.50;;;;;;;;;;7389256;19;20316;-75
2022/09/27 08:20:42;;;;;;;1.13;0.60;;;;;;;;;;7388799;19;20473;-75
2022/09/27 08:23:07;;;;;;;3.35;0.88;;;;;;;;;;7390277;19;20002;-74
2022/09/27 08:25:33;;;;;;;4.65;1.00;;;;;;;;;;7392087;19;20011;-75
2022/09/27 08:28:00;;;;;;;3.70;1.27;;;;;;;;;;7385917;19;20010;-76
2022/09/27 08:30:30;;;;;;;4.45;1.20;;;;;;;;;;7388657;19;20453;-74
2022/09/27 08:33:01;;;;;;;2.17;0.80;;;;;;;;;;7391638;19;19999;-73
2022/09/27 08:35:27;;;;;;;1.73;0.85;;;;;;;;;;7388439;19;20010;-73
2022/09/27 08:37:54;;;;;;;0.90;0.57;;;;;;;;;;7388828;19;20035;-74
2022/09/27 08:40:22;;;;;;;0.90;0.55;;;;;;;;;;7391805;19;20009;-71
2022/09/27 08:43:00;;;;;;;1.23;0.60;;;;;;;;;;7394633;19;20012;-72
2022/09/27 08:45:37;;;;;;;0.63;0.38;;;;;;;;;;7391745;19;20037;-73
2022/09/27 08:48:04;;;;;;;0.77;0.22;;;;;;;;;;7389270;19;20011;-81
2022/09/27 08:50:36;;;;;;;2.00;0.30;;;;;;;;;;7389720;19;20022;-83
2022/09/27 08:53:19;;;;;;;0.57;0.40;;;;;;;;;;7387418;19;20095;-81
2022/09/27 08:55:49;;;;;;;2.85;1.27;;;;;;;;;;7396824;19;20475;-89
2022/09/27 08:58:37;;;;;;;2.28;1.10;;;;;;;;;;7401194;19;20043;-84
2022/09/27 09:01:06;;;;;;;3.03;1.00;;;;;;;;;;7398608;19;20010;-74
2022/09/27 09:03:36;;;;;;;1.90;0.85;;;;;;;;;;7391060;19;20498;-75
2022/09/27 09:06:22;;;;;;;2.22;0.98;;;;;;;;;;7391371;19;20013;-76
2022/09/27 09:09:14;;;;;;;2.63;0.95;;;;;;;;;;7392590;19;20008;-77
2022/09/27 09:15:53;;;;;;;2.83;0.57;;;;;;;;;;7397803;19;20006;-79
2022/09/27 09:18:44;;;;;;;1.70;1.05;;;;;;;;;;7397984;19;20006;-76
2022/09/27 09:21:31;;;;;;;1.13;0.73;;;;;;;;;;7391022;19;20014;-73
2022/09/27 09:24:14;;;;;;;2.10;0.77;;;;;;;;;;7400086;19;20355;-73
2022/09/27 09:26:45;;;;;;;1.50;0.60;;;;;;;;;;7398338;19;20010;-73
2022/09/27 09:29:30;;;;;;;2.97;0.68;;;;;;;;;;7393569;19;20463;-73
2022/09/27 09:32:16;;;;;;;0.63;0.30;;;;;;;;;;7393862;19;20529;-75
2022/09/27 09:34:51;;;;;;;0.60;0.60;;;;;;;;;;7398060;19;20041;-73
2022/09/27 09:37:20;;;;;;;;;;;;;;;;;;7397068;19;20033;-74
2022/09/27 09:40:25;;;;;;;3.28;0.47;;;;;;;;;;7395627;19;19939;-73
2022/09/27 09:43:12;;;;;;;0.30;0.30;;;;;;;;;;7398125;19;20062;-73
2022/09/27 09:45:46;;;;;;;0.47;0.20;;;;;;;;;;7398785;19;19998;-74
2022/09/27 09:48:33;;;;;;;0.17;0.17;;;;;;;;;;7395614;19;19998;-73
2022/09/27 09:51:00;;;;;;;0.20;0.20;;;;;;;;;;7392728;19;20010;-81
2022/09/27 09:53:31;;;;;;;0.40;0.30;;;;;;;;;;7391880;19;20486;-77
2022/09/27 09:56:06;;;;;;;1.65;0.30;;;;;;;;;;7392355;19;20002;-76
2022/09/27 09:58:41;;;;;;;1.00;0.40;;;;;;;;;;7392119;19;20014;-77
2022/09/27 10:01:26;;;;;;;0.30;0.30;;;;;;;;;;7393804;19;20016;-76
2022/09/27 10:03:53;;;;;;;;;;;;;;;;;;7390420;19;20008;-76
2022/09/27 10:06:18;;;;;;;0.80;0.30;;;;;;;;;;7393201;19;19915;-76
2022/09/27 10:08:44;;;;;;;0.98;0.32;;;;;;;;;;7391493;19;20023;-76
2022/09/27 10:11:21;;;;;;;1.75;0.30;;;;;;;;;;7393062;19;20007;-74
2022/09/27 10:13:47;;;;;;;2.47;0.40;;;;;;;;;;7392887;19;20478;-74
2022/09/27 10:16:16;;;;;;;1.75;0.50;;;;;;;;;;7393469;19;20014;-74
2022/09/27 10:18:42;;;;;;;0.40;0.40;;;;;;;;;;7389242;19;20027;-72
2022/09/27 10:21:21;;;;;;;2.17;0.50;;;;;;;;;;7389789;19;20010;-74
2022/09/27 10:24:14;;;;;;;0.80;0.70;;;;;;;;;;7396093;19;20758;-73
2022/09/27 10:26:44;;;;;;;1.13;0.70;;;;;;;;;;7396300;19;20032;-75
2022/09/27 10:29:31;;;;;;;1.45;0.50;;;;;;;;;;7388352;19;20018;-75
2022/09/27 10:31:58;;;;;;;2.70;1.38;;;;;;;;;;7391587;19;20002;-74
2022/09/27 10:34:33;;;;;;;1.20;0.50;;;;;;;;;;7393027;19;20049;-74
2022/09/27 10:37:10;;;;;;;;;;;;;;;;;;7393895;19;20006;-75
2022/09/27 10:39:37;;;;;;;0.60;0.30;;;;;;;;;;7388618;19;20327;-74
2022/09/27 10:42:29;;;;;;;0.28;0.20;;;;;;;;;;7388605;19;20006;-77
2022/09/27 10:44:54;;;;;;;1.05;0.55;;;;;;;;;;7391972;19;20010;-76
2022/09/27 10:47:22;;;;;;;0.52;0.10;;;;;;;;;;7392521;19;20017;-76
2022/09/27 10:49:51;;;;;;;0.52;0.32;;;;;;;;;;7392085;19;20377;-76
2022/09/27 10:52:22;;;;;;;1.63;0.47;;;;;;;;;;7397497;19;20012;-76
2022/09/27 10:54:54;;;;;;;0.20;0.20;;;;;;;;;;7394497;19;20015;-76
2022/09/27 10:57:22;;;;;;;0.77;0.40;;;;;;;;;;7396140;19;20010;-76
2022/09/27 11:00:05;;;;;;;0.50;0.28;;;;;;;;;;7395406;19;20018;-76
2022/09/27 11:02:34;;;;;;;0.20;0.20;;;;;;;;;;7393134;19;20030;-77
2022/09/27 11:05:10;;;;;;;1.48;0.30;;;;;;;;;;7392477;19;20030;-77
2022/09/27 11:07:36;;;;;;;0.60;0.30;;;;;;;;;;7395388;19;20014;-79
2022/09/27 11:10:22;;;;;;;0.30;0.20;;;;;;;;;;7394249;19;21008;-78
2022/09/27 11:13:22;;;;;;;0.73;0.20;;;;;;;;;;7396848;19;20018;-77
2022/09/27 11:16:02;;;;;;;1.27;0.38;;;;;;;;;;7396942;19;20516;-73
2022/09/27 11:18:59;;;;;;;0.25;0.22;;;;;;;;;;7392940;19;20007;-73
2022/09/27 11:21:41;;;;;;;0.13;0.10;;;;;;;;;;7394298;19;20066;-74
2022/09/27 11:24:31;;;;;;;0.80;0.10;;;;;;;;;;7388930;19;20027;-75
2022/09/27 11:27:06;;;;;;;0.00;0.00;;;;;;;;;;7392346;19;20015;-75
2022/09/27 11:30:00;;;;;;;0.10;0.10;;;;;;;;;;7394959;19;20349;-75
2022/09/27 11:32:53;;;;;;;1.13;0.20;;;;;;;;;;7390632;19;20007;-75
2022/09/27 11:35:43;;;;;;;0.43;0.22;;;;;;;;;;7392386;19;20474;-75
2022/09/27 11:38:29;;;;;;;0.08;0.08;;;;;;;;;;7386440;19;20006;-74
2022/09/27 11:40:56;;;;;;;0.30;0.20;;;;;;;;;;7389760;19;20036;-75
2022/09/27 11:43:49;;;;;;;2.65;0.40;;;;;;;;;;7391589;19;20122;-74
2022/09/27 11:46:27;;;;;;;0.35;0.35;;;;;;;;;;7389219;19;20034;-75
2022/09/27 11:49:15;;;;;;;0.25;0.25;;;;;;;;;;7388718;19;20466;-76
2022/09/27 11:52:16;;;;;;;0.30;0.30;;;;;;;;;;7390559;19;20018;-75
2022/09/27 11:55:02;;;;;;;0.60;0.57;;;;;;;;;;7387821;19;20011;-76
2022/09/27 11:57:40;;;;;;;0.52;0.52;;;;;;;;;;7389183;19;20106;-76
2022/09/27 12:00:13;;;;;;;1.08;0.47;;;;;;;;;;7389180;19;20012;-76
2022/09/27 12:03:08;;;;;;;0.65;0.20;;;;;;;;;;7391970;19;20010;-75
2022/09/27 12:05:55;;;;;;;0.50;0.30;;;;;;;;;;7394309;19;20015;-75
2022/09/27 12:08:21;;;;;;;0.30;0.30;;;;;;;;;;7388667;19;20020;-76
2022/09/27 12:10:51;;;;;;;0.90;0.30;;;;;;;;;;7394674;19;19998;-74
2022/09/27 12:13:38;;;;;;;0.40;0.40;;;;;;;;;;7394787;19;20026;-76
2022/09/27 12:16:05;;;;;;;0.85;0.80;;;;;;;;;;7389819;19;20014;-77
2022/09/27 12:18:38;;;;;;;0.40;0.40;;;;;;;;;;7392817;19;20023;-76
2022/09/27 12:21:08;;;;;;;0.30;0.30;;;;;;;;;;7393099;19;20015;-75
2022/09/27 12:23:51;;;;;;;0.32;0.10;;;;;;;;;;7394258;19;20356;-74
2022/09/27 12:26:24;;;;;;;0.10;0.10;;;;;;;;;;7391453;19;20018;-75
2022/09/27 12:28:54;;;;;;;0.28;0.25;;;;;;;;;;7390915;19;20007;-76
2022/09/27 12:31:50;;;;;;;0.40;0.20;;;;;;;;;;7392116;19;20010;-76
2022/09/27 12:34:27;;;;;;;0.28;0.25;;;;;;;;;;7387353;19;20024;-75
2022/09/27 12:37:02;;;;;;;0.38;0.30;;;;;;;;;;7387401;19;20042;-75
2022/09/27 12:39:42;;;;;;;0.35;0.22;;;;;;;;;;7389107;19;20764;-75
2022/09/27 12:42:22;;;;;;;0.10;0.10;;;;;;;;;;7393499;19;20001;-76
2022/09/27 12:44:49;;;;;;;0.52;0.20;;;;;;;;;;7389208;19;20363;-76
2022/09/27 12:47:32;;;;;;;0.80;0.40;;;;;;;;;;7385365;19;20037;-76
2022/09/27 12:50:25;;;;;;;0.65;0.32;;;;;;;;;;7394246;19;20483;-75
2022/09/27 12:52:54;;;;;;;0.47;0.30;;;;;;;;;;7393253;19;20442;-75
2022/09/27 12:55:31;;;;;;;0.20;0.15;;;;;;;;;;7387713;19;20102;-76
2022/09/27 12:58:21;;;;;;;2.45;0.30;;;;;;;;;;7389961;19;20011;-75
2022/09/27 13:01:02;;;;;;;2.00;0.32;;;;;;;;;;7386923;19;20015;-75
2022/09/27 13:03:49;;;;;;;0.30;0.30;;;;;;;;;;7388065;19;20011;-76
2022/09/27 13:06:46;;;;;;;0.60;0.20;;;;;;;;;;7390850;19;20007;-76
2022/09/27 13:09:11;;;;;;;0.32;0.30;;;;;;;;;;7386343;19;20070;-75
2022/09/27 13:11:54;;;;;;;0.13;0.13;;;;;;;;;;7389928;19;20010;-75
2022/09/27 13:14:23;;;;;;;0.40;0.30;;;;;;;;;;7391781;19;20095;-75
2022/09/27 13:16:50;;;;;;;0.20;0.20;;;;;;;;;;7385079;19;20011;-75
2022/09/27 13:19:41;;;;;;;1.13;0.32;;;;;;;;;;7378237;19;20010;-77
2022/09/27 13:22:25;;;;;;;0.32;0.30;;;;;;;;;;7388085;19;20439;-78
2022/09/27 13:24:50;;;;;;;0.73;0.28;;;;;;;;;;7387339;19;20107;-77
2022/09/27 13:27:24;;;;;;;0.82;0.20;;;;;;;;;;7383656;19;21524;-77
2022/09/27 13:29:51;;;;;;;0.85;0.40;;;;;;;;;;7386420;19;20038;-76
2022/09/27 13:32:22;;;;;;;0.63;0.40;;;;;;;;;;7391996;19;20062;-79
2022/09/27 13:34:52;;;;;;;0.43;0.30;;;;;;;;;;7391419;19;19999;-77
2022/09/27 13:37:44;;;;;;;1.42;0.30;;;;;;;;;;7388995;19;20009;-76
2022/09/27 13:40:15;;;;;;;0.15;0.15;;;;;;;;;;7388220;19;20067;-77
2022/09/27 13:43:08;;;;;;;0.17;0.17;;;;;;;;;;7390948;19;20003;-76
2022/09/27 13:45:40;;;;;;;0.60;0.20;;;;;;;;;;7388541;19;20375;-76
2022/09/27 13:48:15;;;;;;;0.68;0.30;;;;;;;;;;7387020;19;20025;-77
2022/09/27 13:50:55;;;;;;;0.80;0.30;;;;;;;;;;7392603;19;19998;-77
2022/09/27 13:53:38;;;;;;;0.35;0.30;;;;;;;;;;7388210;19;20795;-77
2022/09/27 13:56:04;;;;;;;0.32;0.20;;;;;;;;;;7388331;19;20010;-77
2022/09/27 13:58:36;;;;;;;1.20;0.50;;;;;;;;;;7394334;19;20017;-77
2022/09/27 14:01:19;;;;;;;1.40;0.20;;;;;;;;;;7398402;19;20019;-77
2022/09/27 14:04:18;;;;;;;1.38;0.32;;;;;;;;;;7397792;19;20388;-77
2022/09/27 14:06:48;;;;;;;0.20;0.20;;;;;;;;;;7396668;19;20023;-77
2022/09/27 14:09:22;;;;;;;0.63;0.20;;;;;;;;;;7395185;19;20010;-77
2022/09/27 14:11:53;;;;;;;0.65;0.30;;;;;;;;;;7398374;19;20025;-77
2022/09/27 14:14:23;;;;;;;0.50;0.30;;;;;;;;;;7395151;19;20466;-77
2022/09/27 14:16:49;;;;;;;1.58;0.45;;;;;;;;;;7396917;19;20002;-77
2022/09/27 14:19:18;;;;;;;0.60;0.38;;;;;;;;;;7393908;19;20010;-77
2022/09/27 14:21:44;;;;;;;0.13;0.13;;;;;;;;;;7395094;19;20006;-77
2022/09/27 14:24:36;;;;;;;0.22;0.10;;;;;;;;;;7394576;19;20034;-77
2022/09/27 14:27:11;;;;;;;3.20;0.43;;;;;;;;;;7395517;19;20030;-76
2022/09/27 14:29:55;;;;;;;0.77;0.50;;;;;;;;;;7396733;19;20498;-77
2022/09/27 14:32:47;;;;;;;0.82;0.20;;;;;;;;;;7397090;19;20013;-77
2022/09/27 14:38:03;;;;;;;1.35;0.50;;;;;;;;;;7394230;19;20010;-77
2022/09/27 14:40:32;;;;;;;0.70;0.40;;;;;;;;;;7394023;19;20006;-77
2022/09/27 14:42:58;;;;;;;0.30;0.30;;;;;;;;;;7399292;19;20006;-77
2022/09/27 14:45:39;;;;;;;0.68;0.40;;;;;;;;;;7394211;19;19998;-77
2022/09/27 14:48:20;;;;;;;0.95;0.40;;;;;;;;;;7395215;19;20016;-77
2022/09/27 14:51:19;;;;;;;0.52;0.20;;;;;;;;;;7393188;19;20062;-77
2022/09/27 14:53:55;;;;;;;0.63;0.30;;;;;;;;;;7390542;19;20482;-77
2022/09/27 14:56:26;;;;;;;3.08;0.30;;;;;;;;;;7397031;19;19999;-77
2022/09/27 14:59:02;;;;;;;0.85;0.45;;;;;;;;;;7391213;19;20017;-77
2022/09/27 15:01:29;;;;;;;1.60;0.30;;;;;;;;;;7395075;19;20024;-77
2022/09/27 15:03:56;;;;;;;2.90;0.88;;;;;;;;;;7397067;19;20010;-78
2022/09/27 15:06:23;;;;;;;0.88;0.50;;;;;;;;;;7394802;19;20462;-77
2022/09/27 15:08:49;;;;;;;2.55;0.80;;;;;;;;;;7394266;19;20095;-77
2022/09/27 15:11:18;;;;;;;3.05;0.95;;;;;;;;;;7392870;19;20006;-77
2022/09/27 15:13:45;;;;;;;1.73;0.55;;;;;;;;;;7392850;19;19998;-76
2022/09/27 15:16:17;;;;;;;1.25;0.60;;;;;;;;;;7392921;19;20476;-77
2022/09/27 15:18:45;;;;;;;1.70;0.68;;;;;;;;;;7391577;19;20014;-79
2022/09/27 15:21:14;;;;;;;1.83;0.80;;;;;;;;;;7392846;19;20459;-77
2022/09/27 15:23:42;;;;;;;1.55;0.40;;;;;;;;;;7396321;19;20058;-76
2022/09/27 15:26:10;;;;;;;0.70;0.52;;;;;;;;;;7394179;19;19999;-77